createdAt,value
2023-02-27T00:02:15.545Z,513.00
2023-02-27T00:06:15.632Z,514.00
2023-02-27T00:10:15.732Z,518.00
2023-02-27T00:14:15.858Z,519.00
2023-02-27T00:18:15.936Z,517.00
2023-02-27T00:22:16.017Z,519.00
2023-02-27T00:26:16.106Z,518.00
2023-02-27T00:30:16.218Z,516.00
2023-02-27T00:34:16.329Z,522.00
2023-02-27T00:38:16.403Z,521.00
2023-02-27T00:42:16.532Z,517.00
2023-02-27T00:46:17.655Z,520.00
2023-02-27T00:50:16.818Z,515.00
2023-02-27T00:54:16.925Z,513.00
2023-02-27T00:58:17.140Z,509.00
2023-02-27T01:02:17.292Z,509.00
2023-02-27T01:06:17.345Z,510.00
2023-02-27T01:10:17.461Z,511.00
2023-02-27T01:14:17.658Z,508.00
2023-02-27T01:18:17.811Z,512.00
2023-02-27T01:22:17.965Z,514.00
2023-02-27T01:26:18.147Z,516.00
2023-02-27T01:30:18.385Z,510.00
2023-02-27T01:34:18.546Z,509.00
2023-02-27T01:38:18.743Z,508.00
2023-02-27T01:42:18.971Z,511.00
2023-02-27T01:46:19.170Z,513.00
2023-02-27T01:50:19.355Z,516.00
2023-02-27T01:54:19.570Z,515.00
2023-02-27T01:58:19.524Z,516.00
2023-02-27T02:02:19.537Z,515.00
2023-02-27T02:06:19.443Z,518.00
2023-02-27T02:10:19.393Z,515.00
2023-02-27T02:14:19.353Z,515.00
2023-02-27T02:18:19.336Z,517.00
2023-02-27T02:22:19.285Z,517.00
2023-02-27T02:26:19.227Z,518.00
2023-02-27T02:30:19.232Z,518.00
2023-02-27T02:34:19.186Z,524.00
2023-02-27T02:38:19.305Z,523.00
2023-02-27T02:42:19.548Z,523.00
2023-02-27T02:46:19.811Z,524.00
2023-02-27T02:50:19.996Z,524.00
2023-02-27T02:54:20.226Z,520.00
2023-02-27T02:58:20.409Z,521.00
2023-02-27T03:02:20.633Z,519.00
2023-02-27T03:06:20.591Z,523.00
2023-02-27T03:10:20.582Z,521.00
2023-02-27T03:14:20.527Z,521.00
2023-02-27T03:18:20.573Z,522.00
2023-02-27T03:22:20.473Z,522.00
2023-02-27T03:26:20.382Z,520.00
2023-02-27T03:30:20.399Z,522.00
2023-02-27T03:34:20.303Z,524.00
2023-02-27T03:38:20.305Z,521.00
2023-02-27T03:42:20.305Z,516.00
2023-02-27T03:46:20.370Z,515.00
2023-02-27T03:50:20.441Z,519.00
2023-02-27T03:54:20.579Z,517.00
2023-02-27T03:58:20.598Z,516.00
2023-02-27T04:02:20.672Z,513.00
2023-02-27T04:06:20.666Z,515.00
2023-02-27T04:10:20.649Z,514.00
2023-02-27T04:14:20.658Z,516.00
2023-02-27T04:18:20.782Z,514.00
2023-02-27T04:22:20.869Z,512.00
2023-02-27T04:26:21.007Z,514.00
2023-02-27T04:30:21.141Z,511.00
2023-02-27T04:34:21.262Z,516.00
2023-02-27T04:38:21.425Z,515.00
2023-02-27T04:42:21.626Z,515.00
2023-02-27T04:46:21.814Z,516.00
2023-02-27T04:50:22.006Z,517.00
2023-02-27T04:54:21.988Z,520.00
2023-02-27T04:58:23.799Z,522.00
2023-02-27T05:02:21.946Z,523.00
2023-02-27T05:06:21.891Z,517.00
2023-02-27T05:10:21.799Z,512.00
2023-02-27T05:14:21.813Z,508.00
2023-02-27T05:18:21.786Z,514.00
2023-02-27T05:22:21.718Z,512.00
2023-02-27T05:26:21.664Z,512.00
2023-02-27T05:30:21.656Z,520.00
2023-02-27T05:34:21.617Z,517.00
2023-02-27T05:38:21.569Z,516.00
2023-02-27T05:42:21.525Z,517.00
2023-02-27T05:46:21.485Z,524.00
2023-02-27T05:50:21.461Z,524.00
2023-02-27T05:54:21.439Z,523.00
2023-02-27T05:58:21.378Z,525.00
2023-02-27T06:02:21.409Z,527.00
2023-02-27T06:06:21.322Z,521.00
2023-02-27T06:10:21.249Z,524.00
2023-02-27T06:14:21.263Z,525.00
2023-02-27T06:18:21.182Z,525.00
2023-02-27T06:22:21.156Z,528.00
2023-02-27T06:26:21.154Z,528.00
2023-02-27T06:30:21.280Z,532.00
2023-02-27T06:34:21.359Z,526.00
2023-02-27T06:38:21.475Z,634.00
2023-02-27T06:42:21.574Z,706.00
2023-02-27T06:46:21.823Z,772.00
2023-02-27T06:50:21.762Z,852.00
2023-02-27T06:54:21.723Z,968.00
2023-02-27T06:58:21.601Z,1174.00
2023-02-27T07:02:21.720Z,1350.00
2023-02-27T07:06:21.509Z,1502.00
2023-02-27T07:10:22.463Z,1600.00
2023-02-27T07:14:21.760Z,1739.00
2023-02-27T07:18:21.396Z,1888.00
2023-02-27T07:22:21.362Z,2144.00
2023-02-27T07:26:21.739Z,2101.00
2023-02-27T07:30:21.453Z,2169.00
2023-02-27T07:34:21.414Z,2259.00
2023-02-27T07:38:21.393Z,2343.00
2023-02-27T07:42:21.356Z,2480.00
2023-02-27T07:46:21.757Z,2581.00
2023-02-27T07:50:21.750Z,2626.00
2023-02-27T07:54:21.223Z,2692.00
2023-02-27T07:58:21.244Z,2684.00
2023-02-27T08:02:21.198Z,2646.00
2023-02-27T08:06:21.126Z,2605.00
2023-02-27T08:10:21.097Z,2557.00
2023-02-27T08:14:21.055Z,2532.00
2023-02-27T08:18:21.018Z,2506.00
2023-02-27T08:22:20.954Z,2472.00
2023-02-27T08:26:21.143Z,2440.00
2023-02-27T08:30:21.271Z,2414.00
2023-02-27T08:34:21.112Z,2385.00
2023-02-27T08:38:21.042Z,2350.00
2023-02-27T08:42:21.019Z,2330.00
2023-02-27T08:46:21.266Z,2310.00
2023-02-27T08:50:21.262Z,2284.00
2023-02-27T08:54:20.910Z,2266.00
2023-02-27T08:58:21.268Z,2254.00
2023-02-27T09:02:21.044Z,2236.00
2023-02-27T09:06:21.263Z,2213.00
2023-02-27T09:10:20.901Z,2191.00
2023-02-27T09:14:20.844Z,2171.00
2023-02-27T09:18:20.809Z,2157.00
2023-02-27T09:22:20.763Z,2137.00
2023-02-27T09:26:22.887Z,2119.00
2023-02-27T09:30:21.750Z,2099.00
2023-02-27T09:34:20.693Z,2088.00
2023-02-27T09:38:20.616Z,2068.00
2023-02-27T09:42:20.809Z,2061.00
2023-02-27T09:46:20.809Z,2041.00
2023-02-27T09:50:20.808Z,2025.00
2023-02-27T09:54:20.466Z,2020.00
2023-02-27T09:58:20.453Z,2006.00
2023-02-27T10:02:20.848Z,1983.00
2023-02-27T10:06:20.410Z,1965.00
2023-02-27T10:10:20.351Z,1957.00
2023-02-27T10:14:20.383Z,1938.00
2023-02-27T10:18:27.615Z,1908.00
2023-02-27T10:22:21.533Z,1892.00
2023-02-27T10:26:20.618Z,1875.00
2023-02-27T10:30:29.230Z,1869.00
2023-02-27T10:34:21.819Z,1854.00
2023-02-27T10:38:20.733Z,1916.00
2023-02-27T10:42:20.877Z,1584.00
2023-02-27T10:46:20.837Z,1227.00
2023-02-27T10:50:20.800Z,1357.00
2023-02-27T10:54:20.795Z,1485.00
2023-02-27T10:58:20.716Z,1615.00
2023-02-27T11:02:20.853Z,1776.00
2023-02-27T11:06:20.726Z,1965.00
2023-02-27T11:10:20.604Z,2073.00
2023-02-27T11:14:20.825Z,2159.00
2023-02-27T11:18:20.488Z,2300.00
2023-02-27T11:22:20.451Z,2415.00
2023-02-27T11:26:20.833Z,2491.00
2023-02-27T11:30:20.391Z,2616.00
2023-02-27T11:34:20.374Z,2781.00
2023-02-27T11:38:20.969Z,2846.00
2023-02-27T11:42:20.382Z,1305.00
2023-02-27T11:46:46.572Z,1591.00
2023-02-27T11:50:21.194Z,1782.00
2023-02-27T11:54:20.246Z,1926.00
2023-02-27T11:58:20.868Z,2056.00
2023-02-27T12:02:20.852Z,2170.00
2023-02-27T12:06:20.833Z,2279.00
2023-02-27T12:10:20.636Z,2368.00
2023-02-27T12:14:20.696Z,2454.00
2023-02-27T12:18:20.728Z,2540.00
2023-02-27T12:22:20.701Z,2645.00
2023-02-27T12:26:20.876Z,2725.00
2023-02-27T12:30:20.704Z,2881.00
2023-02-27T12:34:20.826Z,2899.00
2023-02-27T12:38:20.805Z,2799.00
2023-02-27T12:42:20.857Z,2769.00
2023-02-27T12:46:20.896Z,2719.00
2023-02-27T12:50:21.023Z,2646.00
2023-02-27T12:54:21.166Z,2461.00
2023-02-27T12:58:21.377Z,2274.00
2023-02-27T13:02:21.545Z,2280.00
2023-02-27T13:06:21.701Z,2290.00
2023-02-27T13:10:21.905Z,2264.00
2023-02-27T13:14:21.865Z,2234.00
2023-02-27T13:18:23.597Z,2198.00
2023-02-27T13:22:21.800Z,2167.00
2023-02-27T13:26:21.868Z,2138.00
2023-02-27T13:30:21.826Z,2114.00
2023-02-27T13:34:22.017Z,2099.00
2023-02-27T13:38:21.987Z,2083.00
2023-02-27T13:42:21.898Z,2070.00
2023-02-27T13:46:22.008Z,2058.00
2023-02-27T13:50:21.854Z,2042.00
2023-02-27T13:54:21.852Z,2028.00
2023-02-27T13:58:21.786Z,2008.00
2023-02-27T14:02:21.788Z,1995.00
2023-02-27T14:06:21.751Z,1978.00
2023-02-27T14:10:21.673Z,1969.00
2023-02-27T14:14:21.699Z,1959.00
2023-02-27T14:18:33.756Z,1954.00
2023-02-27T14:22:22.801Z,1938.00
2023-02-27T14:26:21.777Z,1926.00
2023-02-27T14:30:21.796Z,1916.00
2023-02-27T14:34:21.902Z,1914.00
2023-02-27T14:38:22.082Z,1907.00
2023-02-27T14:42:22.281Z,1892.00
2023-02-27T14:46:22.377Z,1881.00
2023-02-27T14:50:22.529Z,1875.00
2023-02-27T14:54:22.625Z,1865.00
2023-02-27T14:58:22.772Z,1850.00
2023-02-27T15:02:22.906Z,1837.00
2023-02-27T15:06:23.052Z,1832.00
2023-02-27T15:10:23.400Z,1840.00
2023-02-27T15:14:23.410Z,1873.00
2023-02-27T15:18:23.370Z,1942.00
2023-02-27T15:22:38.038Z,2062.00
2023-02-27T15:26:24.561Z,2090.00
2023-02-27T15:30:23.758Z,2086.00
2023-02-27T15:34:23.942Z,2069.00
2023-02-27T15:38:24.137Z,2059.00
2023-02-27T15:42:24.099Z,2041.00
2023-02-27T15:46:24.095Z,2025.00
2023-02-27T15:50:24.027Z,2011.00
2023-02-27T15:54:23.991Z,2004.00
2023-02-27T15:58:23.967Z,1988.00
2023-02-27T16:02:23.987Z,1975.00
2023-02-27T16:06:23.933Z,1959.00
2023-02-27T16:10:23.945Z,1948.00
2023-02-27T16:14:26.449Z,1929.00
2023-02-27T16:18:23.757Z,1917.00
2023-02-27T16:22:23.732Z,1909.00
2023-02-27T16:26:23.685Z,1905.00
2023-02-27T16:30:23.643Z,1895.00
2023-02-27T16:34:26.052Z,1878.00
2023-02-27T16:38:23.557Z,1870.00
2023-02-27T16:42:23.540Z,1857.00
2023-02-27T16:46:23.516Z,1850.00
2023-02-27T16:50:23.470Z,1836.00
2023-02-27T16:54:23.420Z,1824.00
2023-02-27T16:58:23.376Z,1827.00
2023-02-27T17:02:23.344Z,1812.00
2023-02-27T17:06:23.311Z,1795.00
2023-02-27T17:10:23.436Z,1784.00
2023-02-27T17:14:23.237Z,1777.00
2023-02-27T17:18:23.213Z,1778.00
2023-02-27T17:22:23.180Z,1771.00
2023-02-27T17:26:23.121Z,1764.00
2023-02-27T17:30:23.086Z,1755.00
2023-02-27T17:34:23.095Z,1748.00
2023-02-27T17:38:23.026Z,1743.00
2023-02-27T17:42:22.992Z,1740.00
2023-02-27T17:46:22.967Z,1724.00
2023-02-27T17:50:22.888Z,1713.00
2023-02-27T17:54:22.893Z,1704.00
2023-02-27T17:58:22.822Z,1695.00
2023-02-27T18:02:22.826Z,1678.00
2023-02-27T18:06:22.826Z,1671.00
2023-02-27T18:10:22.733Z,1678.00
2023-02-27T18:14:22.711Z,1674.00
2023-02-27T18:18:22.680Z,1669.00
2023-02-27T18:22:22.753Z,1657.00
2023-02-27T18:26:30.002Z,1649.00
2023-02-27T18:30:23.883Z,1635.00
2023-02-27T18:34:22.837Z,1623.00
2023-02-27T18:38:22.909Z,1614.00
2023-02-27T18:42:23.103Z,1597.00
2023-02-27T18:46:23.110Z,1563.00
2023-02-27T18:50:23.022Z,1524.00
2023-02-27T18:54:22.995Z,1486.00
2023-02-27T18:58:22.976Z,1463.00
2023-02-27T19:02:22.924Z,1453.00
2023-02-27T19:06:22.877Z,1448.00
2023-02-27T19:10:22.847Z,1438.00
2023-02-27T19:14:22.790Z,1418.00
2023-02-27T19:18:22.793Z,1399.00
2023-02-27T19:22:22.747Z,1379.00
2023-02-27T19:26:22.921Z,1367.00
2023-02-27T19:30:23.145Z,1346.00
2023-02-27T19:34:23.310Z,1328.00
2023-02-27T19:38:23.283Z,1311.00
2023-02-27T19:42:23.258Z,1300.00
2023-02-27T19:46:23.270Z,1293.00
2023-02-27T19:50:23.190Z,1281.00
2023-02-27T19:54:23.154Z,1272.00
2023-02-27T19:58:23.118Z,1271.00
2023-02-27T20:02:23.087Z,1260.00
2023-02-27T20:06:23.038Z,1242.00
2023-02-27T20:10:22.989Z,1225.00
2023-02-27T20:14:22.961Z,1208.00
2023-02-27T20:18:22.937Z,1195.00
2023-02-27T20:22:22.864Z,1187.00
2023-02-27T20:26:22.821Z,1176.00
2023-02-27T20:30:22.784Z,1165.00
2023-02-27T20:34:22.818Z,1154.00
2023-02-27T20:38:22.764Z,1141.00
2023-02-27T20:42:22.671Z,1138.00
2023-02-27T20:46:22.634Z,1132.00
2023-02-27T20:50:22.611Z,1117.00
2023-02-27T20:54:22.613Z,1108.00
2023-02-27T20:58:22.559Z,1096.00
2023-02-27T21:02:22.514Z,1081.00
2023-02-27T21:06:22.502Z,1067.00
2023-02-27T21:10:22.445Z,1068.00
2023-02-27T21:14:22.451Z,1065.00
2023-02-27T21:18:22.355Z,1059.00
2023-02-27T21:22:22.328Z,1048.00
2023-02-27T21:26:22.264Z,1038.00
2023-02-27T21:30:22.228Z,1027.00
2023-02-27T21:34:22.215Z,1016.00
2023-02-27T21:38:22.186Z,1007.00
2023-02-27T21:42:22.183Z,999.00
2023-02-27T21:46:22.191Z,993.00
2023-02-27T21:50:22.223Z,987.00
2023-02-27T21:54:22.244Z,975.00
2023-02-27T21:58:22.282Z,975.00
2023-02-27T22:02:22.362Z,967.00
2023-02-27T22:06:22.315Z,966.00
2023-02-27T22:10:22.349Z,951.00
2023-02-27T22:14:22.378Z,940.00
2023-02-27T22:18:22.420Z,936.00
2023-02-27T22:22:22.439Z,926.00
2023-02-27T22:26:22.479Z,918.00
2023-02-27T22:30:22.508Z,915.00
2023-02-27T22:34:22.536Z,910.00
2023-02-27T22:38:22.625Z,901.00
2023-02-27T22:42:22.643Z,898.00
2023-02-27T22:46:22.696Z,885.00
2023-02-27T22:50:22.751Z,879.00
2023-02-27T22:54:22.827Z,874.00
2023-02-27T22:58:22.887Z,867.00
2023-02-27T23:02:23.064Z,866.00
2023-02-27T23:06:23.210Z,862.00
2023-02-27T23:10:23.429Z,854.00
2023-02-27T23:14:23.518Z,843.00
2023-02-27T23:18:23.591Z,841.00
2023-02-27T23:22:23.821Z,834.00
2023-02-27T23:26:23.878Z,826.00
2023-02-27T23:30:24.040Z,821.00
2023-02-27T23:34:24.158Z,814.00
2023-02-27T23:38:24.325Z,810.00
2023-02-27T23:42:24.417Z,809.00
2023-02-27T23:46:24.500Z,801.00
2023-02-27T23:50:24.485Z,802.00
2023-02-27T23:54:24.500Z,803.00
2023-02-27T23:58:24.480Z,798.00
